createdAt,value
2018-07-17T00:01:53.376Z,54.20
2018-07-17T00:04:21.787Z,54.40
2018-07-17T00:06:50.131Z,54.50
2018-07-17T00:09:18.492Z,54.60
2018-07-17T00:11:46.930Z,54.70
2018-07-17T00:14:15.284Z,54.60
2018-07-17T00:16:44.739Z,54.70
2018-07-17T00:24:09.423Z,56.20
2018-07-17T00:26:37.802Z,56.40
2018-07-17T00:29:06.241Z,56.50
2018-07-17T00:31:35.069Z,56.40
2018-07-17T00:34:03.467Z,56.40
2018-07-17T00:36:31.949Z,56.20
2018-07-17T00:39:00.312Z,56.20
2018-07-17T00:41:28.703Z,56.30
2018-07-17T00:43:57.055Z,56.10
2018-07-17T00:46:25.363Z,55.80
2018-07-17T00:48:53.784Z,55.80
2018-07-17T00:51:22.220Z,55.90
2018-07-17T00:53:50.682Z,55.90
2018-07-17T00:56:19.009Z,55.80
2018-07-17T00:58:48.007Z,55.90
2018-07-17T01:01:21.763Z,56.10
2018-07-17T01:03:55.451Z,56.30
2018-07-17T01:06:29.241Z,56.40
2018-07-17T01:09:03.187Z,56.40
2018-07-17T01:11:36.843Z,56.70
2018-07-17T01:14:27.660Z,56.70
2018-07-17T01:16:56.046Z,56.60
2018-07-17T01:19:24.387Z,56.40
2018-07-17T01:21:52.722Z,56.50
2018-07-17T01:24:21.175Z,56.40
2018-07-17T01:26:49.493Z,56.50
2018-07-17T01:29:17.863Z,56.60
2018-07-17T01:31:46.195Z,56.70
2018-07-17T01:34:14.659Z,56.50
2018-07-17T01:36:43.039Z,56.20
2018-07-17T01:39:11.543Z,56.20
2018-07-17T01:41:40.021Z,56.10
2018-07-17T01:44:08.347Z,56.60
2018-07-17T01:46:36.699Z,56.80
2018-07-17T01:49:05.061Z,56.70
2018-07-17T01:51:33.454Z,56.60
2018-07-17T01:54:01.958Z,56.50
2018-07-17T01:56:30.285Z,56.50
2018-07-17T02:01:26.898Z,56.70
2018-07-17T02:03:55.236Z,57.00
2018-07-17T02:06:23.611Z,57.40
2018-07-17T02:08:52.027Z,57.60
2018-07-17T02:11:20.396Z,57.80
2018-07-17T02:13:48.775Z,57.80
2018-07-17T02:16:17.154Z,57.90
2018-07-17T02:18:45.559Z,57.80
2018-07-17T02:21:13.915Z,57.80
2018-07-17T02:23:42.322Z,57.80
2018-07-17T02:28:38.700Z,57.60
2018-07-17T02:31:07.065Z,57.70
2018-07-17T02:33:35.531Z,57.70
2018-07-17T02:36:03.956Z,57.70
2018-07-17T02:38:32.418Z,57.70
2018-07-17T02:41:00.854Z,57.60
2018-07-17T02:43:29.207Z,59.00
2018-07-17T02:45:58.140Z,59.60
2018-07-17T02:48:27.060Z,60.10
2018-07-17T02:50:55.498Z,60.10
2018-07-17T02:53:23.848Z,60.40
2018-07-17T02:55:52.300Z,60.00
2018-07-17T02:58:20.650Z,60.00
2018-07-17T03:00:49.026Z,60.20
2018-07-17T03:03:17.460Z,60.20
2018-07-17T03:05:45.821Z,60.20
2018-07-17T03:08:14.196Z,60.10
2018-07-17T03:10:42.679Z,59.80
2018-07-17T03:13:11.153Z,59.60
2018-07-17T03:15:39.524Z,59.90
2018-07-17T03:18:07.928Z,59.90
2018-07-17T03:20:36.434Z,59.70
2018-07-17T03:23:04.791Z,59.60
2018-07-17T03:25:33.124Z,59.40
2018-07-17T03:28:01.470Z,59.20
2018-07-17T03:30:29.818Z,59.50
2018-07-17T03:32:58.314Z,58.80
2018-07-17T03:35:26.653Z,58.70
2018-07-17T03:40:23.098Z,58.70
2018-07-17T03:45:19.856Z,58.60
2018-07-17T03:47:48.785Z,58.70
2018-07-17T03:50:17.157Z,59.20
2018-07-17T03:52:46.114Z,58.20
2018-07-17T03:55:15.248Z,57.90
2018-07-17T03:57:44.236Z,57.90
2018-07-17T04:00:15.448Z,58.00
2018-07-17T04:02:43.843Z,58.10
2018-07-17T04:05:12.306Z,58.10
2018-07-17T04:07:40.650Z,58.30
2018-07-17T04:10:09.034Z,58.30
2018-07-17T04:12:37.467Z,58.50
2018-07-17T04:15:05.877Z,59.10
2018-07-17T04:17:34.214Z,59.00
2018-07-17T04:20:02.550Z,59.20
2018-07-17T04:22:31.244Z,59.10
2018-07-17T04:27:31.309Z,59.80
2018-07-17T04:29:59.619Z,59.80
2018-07-17T04:32:27.958Z,60.00
2018-07-17T04:37:24.420Z,60.90
2018-07-17T04:42:21.046Z,60.50
2018-07-17T04:44:49.531Z,60.50
2018-07-17T04:47:17.943Z,60.50
2018-07-17T04:52:14.358Z,60.60
2018-07-17T04:54:42.752Z,60.60
2018-07-17T04:59:39.262Z,60.30
2018-07-17T05:02:08.257Z,60.30
2018-07-17T05:04:36.650Z,60.20
2018-07-17T05:07:05.044Z,60.20
2018-07-17T05:09:34.962Z,60.30
2018-07-17T05:12:03.432Z,60.50
2018-07-17T05:14:31.761Z,60.60
2018-07-17T05:17:00.716Z,60.60
2018-07-17T05:19:29.067Z,61.20
2018-07-17T05:21:57.416Z,61.00
2018-07-17T05:24:25.828Z,61.10
2018-07-17T05:26:54.171Z,61.00
2018-07-17T05:29:22.546Z,61.00
2018-07-17T05:31:51.015Z,61.40
2018-07-17T05:34:19.545Z,61.40
2018-07-17T05:36:47.890Z,61.20
2018-07-17T05:39:16.286Z,61.20
2018-07-17T05:41:44.662Z,61.30
2018-07-17T05:44:13.054Z,61.40
2018-07-17T05:46:41.498Z,61.00
2018-07-17T05:49:09.857Z,60.90
2018-07-17T05:56:34.554Z,60.40
2018-07-17T05:59:03.032Z,60.70
2018-07-17T06:01:31.390Z,59.70
2018-07-17T06:03:59.739Z,59.80
2018-07-17T06:06:28.164Z,59.80
2018-07-17T06:08:56.693Z,59.50
2018-07-17T06:11:24.976Z,59.30
2018-07-17T06:16:21.562Z,59.10
2018-07-17T06:18:49.953Z,59.20
2018-07-17T06:21:18.363Z,58.30
2018-07-17T06:23:46.755Z,57.80
2018-07-17T06:26:15.137Z,57.50
2018-07-17T06:28:43.482Z,56.40
2018-07-17T06:31:11.895Z,56.50
2018-07-17T06:33:40.342Z,56.10
2018-07-17T06:36:08.716Z,56.30
2018-07-17T06:38:37.267Z,55.30
2018-07-17T06:41:05.564Z,55.50
2018-07-17T06:43:34.637Z,55.20
2018-07-17T06:46:02.989Z,55.20
2018-07-17T06:48:31.321Z,55.00
2018-07-17T06:50:59.737Z,54.90
2018-07-17T06:53:28.067Z,55.80
2018-07-17T06:55:56.456Z,55.80
2018-07-17T06:58:24.856Z,56.50
2018-07-17T07:00:53.241Z,55.00
2018-07-17T07:03:21.720Z,54.80
2018-07-17T07:05:56.695Z,54.60
2018-07-17T07:08:25.051Z,54.40
2018-07-17T07:13:21.476Z,54.60
2018-07-17T07:20:46.007Z,53.40
2018-07-17T07:23:14.416Z,53.20
2018-07-17T07:30:39.161Z,51.60
2018-07-17T07:33:07.569Z,50.90
2018-07-17T07:35:35.981Z,51.70
2018-07-17T07:40:32.616Z,51.70
2018-07-17T07:43:00.968Z,51.30
2018-07-17T07:45:29.330Z,50.80
2018-07-17T07:47:57.660Z,51.50
2018-07-17T07:50:26.397Z,51.70
2018-07-17T07:52:54.912Z,50.80
2018-07-17T07:55:23.262Z,50.20
2018-07-17T07:57:51.640Z,49.90
2018-07-17T08:00:20.067Z,49.40
2018-07-17T08:02:48.410Z,49.40
2018-07-17T08:05:16.782Z,49.20
2018-07-17T08:07:45.111Z,49.50
2018-07-17T08:10:13.581Z,48.10
2018-07-17T08:12:41.932Z,48.50
2018-07-17T08:15:10.280Z,48.50
2018-07-17T08:17:38.775Z,47.50
2018-07-17T08:20:07.169Z,47.10
2018-07-17T08:22:35.695Z,47.30
2018-07-17T08:25:04.109Z,48.30
2018-07-17T08:27:32.717Z,46.70
2018-07-17T08:30:01.099Z,46.30
2018-07-17T08:32:29.516Z,45.60
2018-07-17T08:34:57.892Z,45.50
2018-07-17T08:37:26.237Z,45.90
2018-07-17T08:39:54.607Z,43.90
2018-07-17T08:42:22.997Z,43.70
2018-07-17T08:44:52.137Z,44.10
2018-07-17T08:49:48.843Z,43.30
2018-07-17T08:52:17.171Z,42.60
2018-07-17T08:54:45.626Z,42.00
2018-07-17T08:57:14.051Z,42.50
2018-07-17T08:59:42.436Z,42.10
2018-07-17T09:02:11.198Z,42.50
2018-07-17T09:04:39.638Z,41.90
2018-07-17T09:07:08.019Z,42.30
2018-07-17T09:09:36.963Z,40.90
2018-07-17T09:12:05.319Z,41.20
2018-07-17T09:14:33.715Z,39.70
2018-07-17T09:17:02.207Z,39.60
2018-07-17T09:19:30.613Z,39.00
2018-07-17T09:21:58.966Z,40.70
2018-07-17T09:24:27.358Z,40.00
2018-07-17T09:26:55.813Z,39.40
2018-07-17T09:29:24.246Z,39.90
2018-07-17T09:31:52.607Z,41.20
2018-07-17T09:34:20.944Z,38.80
2018-07-17T09:36:49.319Z,39.70
2018-07-17T09:41:45.979Z,39.10
2018-07-17T09:44:14.344Z,38.60
2018-07-17T09:46:42.813Z,38.50
2018-07-17T09:49:11.440Z,38.60
2018-07-17T09:51:39.928Z,36.50
2018-07-17T09:54:09.202Z,36.60
2018-07-17T09:56:37.574Z,37.30
2018-07-17T10:01:39.335Z,36.20
2018-07-17T10:04:07.732Z,37.60
2018-07-17T10:06:36.122Z,35.70
2018-07-17T10:09:05.635Z,35.70
2018-07-17T10:11:35.363Z,35.70
2018-07-17T10:14:04.448Z,35.80
2018-07-17T10:16:32.879Z,35.90
2018-07-17T10:19:01.392Z,34.40
2018-07-17T10:21:29.761Z,33.90
2018-07-17T10:23:58.659Z,33.40
2018-07-17T10:26:27.079Z,32.80
2018-07-17T10:28:55.405Z,32.10
2018-07-17T10:36:22.907Z,30.90
2018-07-17T10:38:51.318Z,31.20
2018-07-17T10:41:19.756Z,29.50
2018-07-17T10:48:44.468Z,29.90
2018-07-17T10:51:12.937Z,30.50
2018-07-17T10:53:41.373Z,28.70
2018-07-17T10:56:10.721Z,29.20
2018-07-17T10:58:39.779Z,28.10
2018-07-17T11:01:08.255Z,26.80
2018-07-17T11:03:36.739Z,26.70
2018-07-17T11:06:05.273Z,26.70
2018-07-17T11:08:33.806Z,26.90
2018-07-17T11:11:05.273Z,26.30
2018-07-17T11:13:34.484Z,26.90
2018-07-17T11:16:03.127Z,27.40
2018-07-17T11:18:32.287Z,26.00
2018-07-17T11:21:00.686Z,25.40
2018-07-17T11:23:29.122Z,25.50
2018-07-17T11:25:57.510Z,24.40
2018-07-17T11:28:26.097Z,25.40
2018-07-17T11:30:54.591Z,24.30
2018-07-17T11:33:23.021Z,23.80
2018-07-17T11:35:51.389Z,24.10
2018-07-17T11:38:19.807Z,24.00
2018-07-17T11:40:48.195Z,22.80
2018-07-17T11:43:16.661Z,23.10
2018-07-17T11:45:45.021Z,23.60
2018-07-17T11:48:13.399Z,23.70
2018-07-17T11:50:41.791Z,22.40
2018-07-17T11:53:10.166Z,23.60
2018-07-17T11:55:38.651Z,22.20
2018-07-17T11:58:07.044Z,21.00
2018-07-17T12:00:41.978Z,21.00
2018-07-17T12:03:10.854Z,21.90
2018-07-17T12:05:39.328Z,21.20
2018-07-17T12:08:14.016Z,20.80
2018-07-17T12:10:42.358Z,22.20
2018-07-17T12:13:10.706Z,21.10
2018-07-17T12:15:39.820Z,20.70
2018-07-17T12:18:08.179Z,20.70
2018-07-17T12:20:36.709Z,19.50
2018-07-17T12:23:05.059Z,18.90
2018-07-17T12:25:33.482Z,19.00
2018-07-17T12:30:30.040Z,19.40
2018-07-17T12:32:58.401Z,19.70
2018-07-17T12:35:26.852Z,19.90
2018-07-17T12:37:55.379Z,21.10
2018-07-17T12:42:52.003Z,20.30
2018-07-17T12:45:20.419Z,21.10
2018-07-17T12:47:48.841Z,20.60
2018-07-17T12:50:17.209Z,19.90
2018-07-17T12:52:45.585Z,19.90
2018-07-17T12:55:14.655Z,20.50
2018-07-17T12:57:43.109Z,22.10
2018-07-17T13:00:11.507Z,22.40
2018-07-17T13:02:39.963Z,21.80
2018-07-17T13:05:08.371Z,22.80
2018-07-17T13:07:36.745Z,23.20
2018-07-17T13:10:05.524Z,23.60
2018-07-17T13:19:58.183Z,23.70
2018-07-17T13:22:26.578Z,24.00
2018-07-17T13:24:54.957Z,24.30
2018-07-17T13:27:23.286Z,24.00
2018-07-17T13:29:51.683Z,23.40
2018-07-17T13:32:20.080Z,22.90
2018-07-17T13:34:48.739Z,23.80
2018-07-17T13:37:17.869Z,23.20
2018-07-17T13:39:46.261Z,23.20
2018-07-17T13:42:21.147Z,23.20
2018-07-17T13:44:49.574Z,23.60
2018-07-17T13:47:18.541Z,22.60
2018-07-17T13:49:46.925Z,23.50
2018-07-17T13:52:15.346Z,23.20
2018-07-17T13:57:11.883Z,23.40
2018-07-17T13:59:40.236Z,22.30
2018-07-17T14:02:08.719Z,23.50
2018-07-17T14:04:37.593Z,22.90
2018-07-17T14:07:06.252Z,22.00
2018-07-17T14:09:35.692Z,21.70
2018-07-17T14:12:04.063Z,21.70
2018-07-17T14:14:32.404Z,21.60
2018-07-17T14:17:00.789Z,22.40
2018-07-17T14:19:29.197Z,22.70
2018-07-17T14:21:57.624Z,22.50
2018-07-17T14:24:25.994Z,23.00
2018-07-17T14:26:54.361Z,23.40
2018-07-17T14:29:22.756Z,22.40
2018-07-17T14:31:51.276Z,22.20
2018-07-17T14:34:19.764Z,22.50
2018-07-17T14:36:48.166Z,21.50
2018-07-17T14:39:16.637Z,22.00
2018-07-17T14:41:45.027Z,21.90
2018-07-17T14:44:13.420Z,22.10
2018-07-17T14:46:41.782Z,22.00
2018-07-17T14:49:10.125Z,22.10
2018-07-17T14:51:38.541Z,22.60
2018-07-17T14:54:07.088Z,22.50
2018-07-17T14:56:35.490Z,22.20
2018-07-17T14:59:03.898Z,22.00
2018-07-17T15:01:32.252Z,21.70
2018-07-17T15:04:00.648Z,22.30
2018-07-17T15:06:29.083Z,22.50
2018-07-17T15:08:57.480Z,22.30
2018-07-17T15:11:25.991Z,21.30
2018-07-17T15:13:54.471Z,22.60
2018-07-17T15:16:22.928Z,22.00
2018-07-17T15:18:51.363Z,22.70
2018-07-17T15:21:19.797Z,22.00
2018-07-17T15:26:16.292Z,22.20
2018-07-17T15:28:51.453Z,22.70
2018-07-17T15:31:19.848Z,22.70
2018-07-17T15:33:48.244Z,21.80
2018-07-17T15:36:16.660Z,22.90
2018-07-17T15:38:45.050Z,22.50
2018-07-17T15:41:13.436Z,22.60
2018-07-17T15:43:41.826Z,22.60
2018-07-17T15:46:10.416Z,23.30
2018-07-17T15:48:38.751Z,23.20
2018-07-17T15:51:07.278Z,22.10
2018-07-17T15:53:35.777Z,22.20
2018-07-17T15:56:04.161Z,22.40
2018-07-17T15:58:32.572Z,22.50
2018-07-17T16:01:00.968Z,21.60
2018-07-17T16:03:29.439Z,22.10
2018-07-17T16:05:57.829Z,22.30
2018-07-17T16:08:26.186Z,22.90
2018-07-17T16:13:23.399Z,23.00
2018-07-17T16:15:51.752Z,23.20
2018-07-17T16:20:49.173Z,23.40
2018-07-17T16:23:17.611Z,22.70
2018-07-17T16:25:46.028Z,23.60
2018-07-17T16:28:14.389Z,22.80
2018-07-17T16:30:42.759Z,22.20
2018-07-17T16:33:11.180Z,22.70
2018-07-17T16:35:39.621Z,23.00
2018-07-17T16:38:07.974Z,22.60
2018-07-17T16:40:36.401Z,22.50
2018-07-17T16:43:04.899Z,23.00
2018-07-17T16:45:33.295Z,22.80
2018-07-17T16:48:01.813Z,22.80
2018-07-17T16:50:30.173Z,22.90
2018-07-17T16:52:58.570Z,22.80
2018-07-17T16:55:27.097Z,23.40
2018-07-17T16:57:55.476Z,22.70
2018-07-17T17:00:23.947Z,22.50
2018-07-17T17:02:52.320Z,23.20
2018-07-17T17:05:20.751Z,23.30
2018-07-17T17:07:49.147Z,23.20
2018-07-17T17:10:17.521Z,23.70
2018-07-17T17:12:45.937Z,24.00
2018-07-17T17:15:14.337Z,23.80
2018-07-17T17:17:42.997Z,24.00
2018-07-17T17:20:12.017Z,24.40
2018-07-17T17:22:40.397Z,24.70
2018-07-17T17:25:08.763Z,25.10
2018-07-17T17:27:37.138Z,25.00
2018-07-17T17:30:05.521Z,24.70
2018-07-17T17:32:33.889Z,24.50
2018-07-17T17:35:02.268Z,25.20
2018-07-17T17:37:30.626Z,25.80
2018-07-17T17:39:59.656Z,24.80
2018-07-17T17:42:28.122Z,25.10
2018-07-17T17:44:56.517Z,26.30
2018-07-17T17:47:24.875Z,26.00
2018-07-17T17:49:54.463Z,26.90
2018-07-17T17:52:22.886Z,26.80
2018-07-17T17:54:51.260Z,27.20
2018-07-17T17:57:19.676Z,26.60
2018-07-17T17:59:48.027Z,27.30
2018-07-17T18:02:16.447Z,27.40
2018-07-17T18:04:44.861Z,27.20
2018-07-17T18:07:13.234Z,28.10
2018-07-17T18:09:41.699Z,27.80
2018-07-17T18:12:10.643Z,27.90
2018-07-17T18:14:39.121Z,28.40
2018-07-17T18:17:07.467Z,29.30
2018-07-17T18:19:36.455Z,29.00
2018-07-17T18:22:04.969Z,29.60
2018-07-17T18:24:33.344Z,29.50
2018-07-17T18:27:01.772Z,29.20
2018-07-17T18:29:31.828Z,30.00
2018-07-17T18:32:00.180Z,29.50
2018-07-17T18:34:28.850Z,30.50
2018-07-17T18:36:57.388Z,30.00
2018-07-17T18:39:25.786Z,29.70
2018-07-17T18:41:54.282Z,30.00
2018-07-17T18:44:22.975Z,30.10
2018-07-17T18:46:51.430Z,29.80
2018-07-17T18:49:19.832Z,29.60
2018-07-17T18:51:48.206Z,29.80
2018-07-17T18:54:17.174Z,30.00
2018-07-17T18:56:45.508Z,30.50
2018-07-17T18:59:13.913Z,32.00
2018-07-17T19:01:42.342Z,32.10
2018-07-17T19:04:10.890Z,32.50
2018-07-17T19:06:39.342Z,32.40
2018-07-17T19:09:09.288Z,33.00
2018-07-17T19:11:37.707Z,33.10
2018-07-17T19:16:34.468Z,33.40
2018-07-17T19:21:31.850Z,33.70
2018-07-17T19:26:28.754Z,33.80
2018-07-17T19:28:57.226Z,34.20
2018-07-17T19:31:25.672Z,34.50
2018-07-17T19:36:22.246Z,33.00
2018-07-17T19:38:50.640Z,33.70
2018-07-17T19:41:19.054Z,34.30
2018-07-17T19:43:47.759Z,34.30
2018-07-17T19:46:16.124Z,34.20
2018-07-17T19:48:44.525Z,34.10
2018-07-17T19:51:12.959Z,34.10
2018-07-17T19:53:41.882Z,34.40
2018-07-17T19:56:10.273Z,34.70
2018-07-17T19:58:38.701Z,34.20
2018-07-17T20:01:07.614Z,34.90
2018-07-17T20:03:36.010Z,34.50
2018-07-17T20:06:05.047Z,33.60
2018-07-17T20:08:33.577Z,34.20
2018-07-17T20:11:01.909Z,34.50
2018-07-17T20:13:31.077Z,34.50
2018-07-17T20:15:59.480Z,34.60
2018-07-17T20:18:29.122Z,35.20
2018-07-17T20:23:26.696Z,35.60
2018-07-17T20:25:55.076Z,35.50
2018-07-17T20:28:23.453Z,35.60
2018-07-17T20:30:51.881Z,35.80
2018-07-17T20:33:20.265Z,36.40
2018-07-17T20:35:48.792Z,37.40
2018-07-17T20:38:17.305Z,37.70
2018-07-17T20:40:46.013Z,37.90
2018-07-17T20:43:14.500Z,38.20
2018-07-17T20:48:11.098Z,39.10
2018-07-17T20:50:39.480Z,39.90
2018-07-17T20:53:07.856Z,39.40
2018-07-17T20:55:36.234Z,39.20
2018-07-17T20:58:05.019Z,38.90
2018-07-17T21:00:33.984Z,38.40
2018-07-17T21:03:02.437Z,38.00
2018-07-17T21:07:58.895Z,41.00
2018-07-17T21:12:55.490Z,42.00
2018-07-17T21:15:23.875Z,43.00
2018-07-17T21:17:52.212Z,42.90
2018-07-17T21:20:27.290Z,42.90
2018-07-17T21:22:56.177Z,42.30
2018-07-17T21:25:24.625Z,42.70
2018-07-17T21:27:53.450Z,42.80
2018-07-17T21:30:21.922Z,42.80
2018-07-17T21:32:50.438Z,41.50
2018-07-17T21:35:18.808Z,38.10
2018-07-17T21:37:47.172Z,38.30
2018-07-17T21:40:15.565Z,39.10
2018-07-17T21:42:44.041Z,38.50
2018-07-17T21:45:12.426Z,37.50
2018-07-17T21:47:40.739Z,38.30
2018-07-17T21:50:09.084Z,38.10
2018-07-17T21:52:37.432Z,38.00
2018-07-17T21:55:05.889Z,39.00
2018-07-17T21:57:34.257Z,40.90
2018-07-17T22:00:02.609Z,42.40
2018-07-17T22:02:30.973Z,42.00
2018-07-17T22:04:59.333Z,42.60
2018-07-17T22:07:27.713Z,40.60
2018-07-17T22:09:56.112Z,40.10
2018-07-17T22:12:24.517Z,42.50
2018-07-17T22:14:52.855Z,43.40
2018-07-17T22:17:21.269Z,44.10
2018-07-17T22:19:50.019Z,44.30
2018-07-17T22:22:18.409Z,43.80
2018-07-17T22:24:47.467Z,43.50
2018-07-17T22:27:16.577Z,43.30
2018-07-17T22:29:44.948Z,43.50
2018-07-17T22:32:13.316Z,44.10
2018-07-17T22:34:42.981Z,44.40
2018-07-17T22:37:11.434Z,44.80
2018-07-17T22:39:39.747Z,45.00
2018-07-17T22:42:08.095Z,45.00
2018-07-17T22:44:36.427Z,45.20
2018-07-17T22:47:05.497Z,44.80
2018-07-17T22:49:33.861Z,43.90
2018-07-17T22:52:02.266Z,43.70
2018-07-17T22:54:30.647Z,43.50
2018-07-17T22:56:59.008Z,43.50
2018-07-17T22:59:27.361Z,43.50
2018-07-17T23:01:55.752Z,43.70
2018-07-17T23:04:24.661Z,44.10
2018-07-17T23:06:53.793Z,44.60
2018-07-17T23:09:22.176Z,45.10
2018-07-17T23:11:50.680Z,45.60
2018-07-17T23:14:19.019Z,45.90
2018-07-17T23:16:47.353Z,46.40
2018-07-17T23:19:15.713Z,46.40
2018-07-17T23:21:44.083Z,46.80
2018-07-17T23:24:13.182Z,46.50
2018-07-17T23:26:41.533Z,46.90
2018-07-17T23:29:09.900Z,47.30
2018-07-17T23:31:38.260Z,47.70
2018-07-17T23:34:06.647Z,47.90
2018-07-17T23:36:35.112Z,48.00
2018-07-17T23:39:04.381Z,47.60
2018-07-17T23:41:33.614Z,47.40
2018-07-17T23:44:02.016Z,47.50
2018-07-17T23:46:30.391Z,47.50
2018-07-17T23:48:58.718Z,47.50
2018-07-17T23:51:27.091Z,47.50
2018-07-17T23:53:55.512Z,47.70
2018-07-17T23:56:23.956Z,47.90
2018-07-17T23:58:52.542Z,48.00
